Terminal Aerodrome Forecast
Issued by NWS Cleveland, OH

Home | Current Version | Previous Version | Text Only | Print | Product List | Glossary Off
Versions: 1 2 3 4 5 6 7 8 9 10 11 12 13 14 15 16 17 18 19 20 21 22 23 24 25 26 27 28 29 30 31 32 33

000
FTUS41 KCLE 220000 AAA
TAFCLE
TAF AMD
KCLE 220037Z 2201/2306 30014G20KT P6SM VCSH SCT015 BKN030
      TEMPO 2201/2205 5SM -SHRA BKN015
     FM220500 33014KT P6SM VCSH BKN015 OVC025
     FM221800 33012KT P6SM BKN035
     FM230000 30006KT P6SM SCT040=

USA.gov is the U.S. government's official web portal to all federal, state and local government web resources and services.